createdAt,value
2022-08-09T00:00:05.900Z,0.40
2022-08-09T00:02:42.866Z,0.50
2022-08-09T00:06:19.833Z,0.50
2022-08-09T00:08:09.943Z,0.60
2022-08-09T00:10:39.070Z,0.40
2022-08-09T00:13:16.729Z,0.50
2022-08-09T00:15:58.945Z,0.60
2022-08-09T00:18:28.955Z,0.40
2022-08-09T00:20:56.269Z,0.50
2022-08-09T00:23:54.724Z,0.40
2022-08-09T00:26:12.065Z,0.70
2022-08-09T00:28:40.589Z,0.70
2022-08-09T00:31:57.173Z,0.60
2022-08-09T00:33:55.623Z,0.43
2022-08-09T00:36:29.767Z,0.30
2022-08-09T00:38:58.620Z,0.40
2022-08-09T00:44:14.426Z,0.52
2022-08-09T00:44:26.076Z,0.50
2022-08-09T00:47:01.639Z,0.47
2022-08-09T00:49:36.563Z,0.55
2022-08-09T00:52:15.980Z,0.60
2022-08-09T00:54:46.112Z,0.60
2022-08-09T00:57:13.833Z,0.88
2022-08-09T00:59:52.722Z,0.70
2022-08-09T01:02:27.413Z,0.60
2022-08-09T01:05:03.485Z,0.70
2022-08-09T01:08:01.025Z,0.60
2022-08-09T01:10:45.169Z,0.70
2022-08-09T01:13:53.369Z,0.70
2022-08-09T01:16:32.102Z,0.70
2022-08-09T01:19:04.654Z,0.50
2022-08-09T01:21:41.052Z,0.57
2022-08-09T01:24:32.223Z,0.80
2022-08-09T01:27:05.013Z,0.93
2022-08-09T01:29:55.558Z,0.85
2022-08-09T01:32:34.105Z,0.67
2022-08-09T01:35:06.845Z,0.80
2022-08-09T01:38:05.751Z,0.90
2022-08-09T01:40:28.382Z,0.60
2022-08-09T01:42:58.254Z,0.77
2022-08-09T01:45:27.930Z,0.70
2022-08-09T01:47:58.994Z,0.52
2022-08-09T01:50:36.584Z,0.50
2022-08-09T01:53:19.212Z,0.80
2022-08-09T01:55:48.021Z,0.50
2022-08-09T01:58:16.611Z,0.57
2022-08-09T02:00:46.074Z,0.60
2022-08-09T02:03:16.761Z,0.80
2022-08-09T02:06:03.916Z,0.70
2022-08-09T02:08:56.920Z,0.80
2022-08-09T02:11:40.240Z,0.83
2022-08-09T02:14:15.837Z,0.60
2022-08-09T02:17:14.415Z,0.52
2022-08-09T02:19:43.659Z,0.90
2022-08-09T02:22:35.792Z,0.80
2022-08-09T02:25:07.915Z,0.70
2022-08-09T02:27:43.230Z,0.70
2022-08-09T02:30:29.406Z,0.70
2022-08-09T02:32:57.929Z,0.60
2022-08-09T02:36:01.688Z,0.68
2022-08-09T02:38:28.475Z,0.50
2022-08-09T02:41:07.834Z,0.63
2022-08-09T02:43:42.591Z,0.50
2022-08-09T02:46:27.414Z,0.60
2022-08-09T02:49:01.188Z,0.70
2022-08-09T02:51:39.970Z,0.70
2022-08-09T02:54:10.610Z,0.82
2022-08-09T02:56:40.331Z,0.70
2022-08-09T02:59:14.856Z,0.68
2022-08-09T03:02:06.075Z,0.50
2022-08-09T03:04:37.331Z,0.60
2022-08-09T03:07:12.286Z,0.50
2022-08-09T03:09:43.271Z,0.60
2022-08-09T03:12:13.572Z,0.65
2022-08-09T03:14:42.830Z,0.80
2022-08-09T03:17:16.467Z,0.70
2022-08-09T03:19:57.775Z,0.60
2022-08-09T03:22:30.478Z,0.60
2022-08-09T03:25:58.693Z,0.60
2022-08-09T03:28:00.001Z,0.32
2022-08-09T03:30:29.917Z,0.70
2022-08-09T03:33:17.753Z,0.43
2022-08-09T03:36:15.924Z,0.60
2022-08-09T03:38:42.132Z,0.60
2022-08-09T03:41:15.321Z,0.60
2022-08-09T03:44:03.135Z,0.60
2022-08-09T03:46:31.321Z,0.60
2022-08-09T03:49:03.710Z,0.70
2022-08-09T03:51:56.250Z,0.70
2022-08-09T03:54:29.316Z,0.80
2022-08-09T03:57:00.792Z,0.70
2022-08-09T03:59:53.777Z,0.60
2022-08-09T04:02:15.371Z,0.80
2022-08-09T04:04:53.704Z,0.68
2022-08-09T04:07:20.575Z,0.50
2022-08-09T04:09:50.177Z,0.50
2022-08-09T04:12:33.300Z,0.68
2022-08-09T04:15:01.598Z,0.80
2022-08-09T04:17:29.583Z,0.90
2022-08-09T04:19:56.931Z,0.55
2022-08-09T04:22:24.978Z,0.70
2022-08-09T04:24:54.835Z,0.70
2022-08-09T04:27:22.137Z,0.52
2022-08-09T04:29:50.496Z,0.60
2022-08-09T04:32:31.331Z,0.45
2022-08-09T04:35:01.276Z,0.40
2022-08-09T04:37:45.976Z,0.40
2022-08-09T04:40:29.055Z,0.20
2022-08-09T04:43:01.687Z,0.38
2022-08-09T04:45:30.766Z,0.30
2022-08-09T04:47:59.514Z,0.40
2022-08-09T04:50:31.991Z,0.40
2022-08-09T04:53:05.594Z,0.25
2022-08-09T04:55:41.190Z,0.40
2022-08-09T04:58:28.961Z,0.40
2022-08-09T05:00:57.541Z,0.37
2022-08-09T05:03:41.085Z,0.40
2022-08-09T05:06:21.758Z,0.38
2022-08-09T05:08:59.846Z,0.40
2022-08-09T05:11:32.140Z,0.47
2022-08-09T05:13:59.894Z,0.40
2022-08-09T05:16:31.771Z,0.30
2022-08-09T05:19:00.314Z,0.40
2022-08-09T05:21:29.664Z,0.32
2022-08-09T05:24:01.878Z,0.45
2022-08-09T05:26:36.913Z,0.40
2022-08-09T05:29:17.753Z,0.50
2022-08-09T05:31:56.918Z,0.47
2022-08-09T05:34:31.030Z,0.20
2022-08-09T05:37:06.059Z,0.40
2022-08-09T05:39:43.333Z,0.57
2022-08-09T05:42:17.566Z,0.30
2022-08-09T05:44:50.957Z,0.60
2022-08-09T05:47:23.244Z,0.70
2022-08-09T05:50:26.745Z,0.30
2022-08-09T05:52:42.647Z,0.20
2022-08-09T05:55:20.357Z,0.30
2022-08-09T05:57:51.191Z,0.40
2022-08-09T06:00:30.553Z,0.20
2022-08-09T06:03:01.503Z,0.40
2022-08-09T06:05:57.344Z,0.40
2022-08-09T06:08:24.617Z,0.50
2022-08-09T06:10:56.218Z,0.20
2022-08-09T06:13:25.496Z,0.50
2022-08-09T06:15:55.229Z,0.50
2022-08-09T06:18:25.082Z,0.43
2022-08-09T06:20:58.609Z,0.30
2022-08-09T06:23:55.592Z,0.50
2022-08-09T06:26:20.398Z,0.20
2022-08-09T06:28:59.416Z,0.40
2022-08-09T06:31:31.290Z,0.40
2022-08-09T06:34:06.519Z,0.50
2022-08-09T06:36:34.093Z,0.38
2022-08-09T06:39:02.371Z,0.32
2022-08-09T06:42:06.382Z,0.30
2022-08-09T06:44:24.538Z,0.60
2022-08-09T06:46:55.226Z,0.40
2022-08-09T06:49:44.930Z,0.35
2022-08-09T06:52:12.086Z,0.40
2022-08-09T06:54:42.984Z,0.30
2022-08-09T06:57:10.539Z,0.20
2022-08-09T07:00:49.913Z,0.40
2022-08-09T07:02:29.911Z,0.30
2022-08-09T07:04:57.969Z,0.35
2022-08-09T07:08:00.389Z,0.40
2022-08-09T07:10:22.559Z,0.40
2022-08-09T07:12:57.637Z,0.30
2022-08-09T07:16:35.205Z,0.60
2022-08-09T07:18:11.918Z,0.38
2022-08-09T07:20:43.480Z,0.20
2022-08-09T07:23:18.826Z,0.40
2022-08-09T07:25:48.120Z,0.60
2022-08-09T07:28:28.082Z,0.60
2022-08-09T07:30:55.637Z,0.40
2022-08-09T07:33:22.551Z,0.38
2022-08-09T07:35:54.306Z,0.40
2022-08-09T07:38:23.340Z,0.50
2022-08-09T07:41:00.872Z,0.60
2022-08-09T07:43:41.137Z,0.55
2022-08-09T07:46:19.392Z,0.60
2022-08-09T07:48:46.935Z,0.30
2022-08-09T07:52:06.259Z,0.63
2022-08-09T07:54:12.774Z,0.65
2022-08-09T07:56:45.082Z,0.60
2022-08-09T07:59:34.218Z,0.38
2022-08-09T08:02:08.993Z,0.50
2022-08-09T08:04:36.185Z,0.85
2022-08-09T08:07:15.385Z,0.70
2022-08-09T08:10:07.497Z,0.50
2022-08-09T08:12:43.587Z,0.50
2022-08-09T08:15:13.854Z,0.33
2022-08-09T08:17:53.942Z,0.70
2022-08-09T08:20:30.584Z,0.55
2022-08-09T08:23:06.277Z,0.60
2022-08-09T08:25:44.530Z,0.50
2022-08-09T08:28:15.092Z,0.57
2022-08-09T08:30:44.157Z,0.82
2022-08-09T08:33:24.338Z,0.43
2022-08-09T08:35:59.043Z,0.57
2022-08-09T08:38:27.979Z,0.57
2022-08-09T08:40:55.966Z,0.60
2022-08-09T08:43:23.811Z,0.50
2022-08-09T08:46:04.320Z,0.65
2022-08-09T08:48:51.330Z,0.47
2022-08-09T08:51:22.559Z,0.57
2022-08-09T08:54:02.678Z,0.47
2022-08-09T08:56:37.756Z,0.43
2022-08-09T08:59:19.088Z,0.60
2022-08-09T09:01:53.278Z,0.43
2022-08-09T09:04:27.745Z,0.65
2022-08-09T09:06:57.469Z,0.70
2022-08-09T09:09:41.133Z,0.50
2022-08-09T09:12:17.073Z,0.50
2022-08-09T09:14:45.323Z,0.40
2022-08-09T09:17:15.534Z,0.50
2022-08-09T09:19:44.036Z,0.60
2022-08-09T09:22:13.984Z,0.50
2022-08-09T09:24:49.205Z,0.50
2022-08-09T09:28:06.379Z,0.50
2022-08-09T09:30:26.152Z,0.60
2022-08-09T09:33:16.983Z,0.50
2022-08-09T09:36:00.887Z,0.50
2022-08-09T09:38:43.678Z,0.40
2022-08-09T09:41:23.258Z,0.55
2022-08-09T09:44:10.780Z,0.60
2022-08-09T09:46:42.062Z,0.37
2022-08-09T09:49:12.448Z,0.50
2022-08-09T09:51:40.849Z,0.50
2022-08-09T09:54:20.462Z,0.90
2022-08-09T09:56:53.228Z,0.52
2022-08-09T09:59:36.739Z,0.73
2022-08-09T10:02:03.707Z,0.40
2022-08-09T10:04:31.441Z,0.50
2022-08-09T10:07:03.338Z,0.50
2022-08-09T10:09:54.972Z,0.60
2022-08-09T10:12:28.076Z,0.63
2022-08-09T10:15:17.218Z,0.60
2022-08-09T10:17:56.178Z,1.00
2022-08-09T10:20:32.851Z,0.55
2022-08-09T10:23:21.220Z,0.60
2022-08-09T10:26:06.766Z,0.80
2022-08-09T10:28:39.883Z,0.85
2022-08-09T10:32:27.434Z,0.63
2022-08-09T10:34:10.209Z,0.70
2022-08-09T10:36:47.746Z,0.80
2022-08-09T10:39:19.417Z,0.50
2022-08-09T10:41:48.041Z,0.63
2022-08-09T10:44:21.588Z,0.68
2022-08-09T10:47:20.582Z,0.50
2022-08-09T10:50:06.958Z,0.60
2022-08-09T10:52:58.143Z,0.57
2022-08-09T10:55:35.692Z,0.43
2022-08-09T10:58:37.351Z,0.70
2022-08-09T11:03:11.027Z,0.40
2022-08-09T11:04:19.450Z,0.50
2022-08-09T11:07:01.512Z,0.50
2022-08-09T11:09:47.846Z,0.50
2022-08-09T11:12:22.133Z,0.40
2022-08-09T11:14:59.125Z,0.70
2022-08-09T11:17:25.894Z,0.60
2022-08-09T11:20:23.111Z,0.70
2022-08-09T11:22:55.628Z,0.68
2022-08-09T11:25:44.833Z,0.50
2022-08-09T11:28:38.839Z,0.43
2022-08-09T11:31:43.068Z,0.40
2022-08-09T11:34:19.829Z,0.60
2022-08-09T11:36:48.158Z,0.40
2022-08-09T11:39:15.664Z,0.50
2022-08-09T11:41:43.697Z,0.40
2022-08-09T11:44:13.732Z,0.65
2022-08-09T11:46:52.263Z,0.60
2022-08-09T11:49:27.877Z,0.63
2022-08-09T11:53:02.474Z,0.50
2022-08-09T11:55:34.897Z,0.40
2022-08-09T11:58:19.688Z,0.40
2022-08-09T12:00:59.512Z,0.40
2022-08-09T12:03:55.859Z,0.35
2022-08-09T12:06:26.525Z,0.50
2022-08-09T12:08:56.218Z,0.35
2022-08-09T12:11:26.459Z,0.40
2022-08-09T12:14:10.757Z,0.70
2022-08-09T12:16:47.284Z,0.30
2022-08-09T12:19:29.369Z,0.35
2022-08-09T12:22:02.942Z,0.28
2022-08-09T12:24:30.339Z,0.45
2022-08-09T12:29:15.214Z,0.33
2022-08-09T12:30:00.159Z,0.28
2022-08-09T12:32:31.585Z,0.32
2022-08-09T12:35:03.065Z,0.30
2022-08-09T12:37:33.345Z,0.30
2022-08-09T12:40:12.120Z,0.30
2022-08-09T12:42:44.262Z,0.10
2022-08-09T12:45:34.356Z,0.30
2022-08-09T12:47:58.982Z,0.47
2022-08-09T12:50:25.975Z,0.10
2022-08-09T12:53:08.974Z,0.20
2022-08-09T12:56:14.627Z,0.32
2022-08-09T12:58:28.564Z,0.30
2022-08-09T13:00:56.565Z,0.38
2022-08-09T13:03:58.482Z,0.30
2022-08-09T13:06:51.189Z,0.50
2022-08-09T13:09:26.391Z,0.45
2022-08-09T13:12:04.991Z,0.40
2022-08-09T13:14:41.191Z,0.20
2022-08-09T13:17:44.221Z,0.22
2022-08-09T13:20:08.775Z,0.20
2022-08-09T13:23:01.834Z,0.20
2022-08-09T13:25:54.445Z,0.22
2022-08-09T13:28:33.902Z,0.20
2022-08-09T13:32:15.122Z,0.28
2022-08-09T13:33:54.290Z,0.40
2022-08-09T13:36:38.868Z,0.25
2022-08-09T13:41:54.896Z,0.30
2022-08-09T13:42:12.640Z,0.30
2022-08-09T13:44:44.179Z,0.20
2022-08-09T13:47:29.092Z,0.30
2022-08-09T13:50:03.467Z,0.20
2022-08-09T13:52:40.690Z,0.43
2022-08-09T13:55:13.644Z,0.15
2022-08-09T13:57:45.061Z,0.20
2022-08-09T14:00:20.341Z,0.33
2022-08-09T14:03:03.511Z,0.30
2022-08-09T14:05:58.173Z,0.28
2022-08-09T14:08:27.133Z,0.28
2022-08-09T14:10:55.649Z,0.43
2022-08-09T14:13:28.198Z,0.20
2022-08-09T14:16:14.464Z,0.20
2022-08-09T14:18:45.916Z,0.32
2022-08-09T14:21:23.713Z,0.30
2022-08-09T14:23:54.656Z,0.30
2022-08-09T14:26:33.539Z,0.40
2022-08-09T14:29:08.094Z,0.35
2022-08-09T14:31:53.609Z,0.32
2022-08-09T14:34:31.354Z,0.30
2022-08-09T14:37:01.526Z,0.20
2022-08-09T14:39:46.467Z,0.20
2022-08-09T14:42:30.878Z,0.25
2022-08-09T14:47:01.154Z,0.22
2022-08-09T14:47:58.575Z,0.10
2022-08-09T14:50:34.067Z,0.22
2022-08-09T14:53:03.124Z,0.10
2022-08-09T14:55:33.562Z,0.20
2022-08-09T14:58:05.238Z,0.15
2022-08-09T15:00:36.385Z,0.15
2022-08-09T15:03:07.596Z,0.20
2022-08-09T15:05:37.170Z,0.30
2022-08-09T15:08:05.076Z,0.30
2022-08-09T15:10:32.813Z,0.10
2022-08-09T15:13:00.330Z,0.20
2022-08-09T15:15:28.900Z,0.20
2022-08-09T15:17:56.916Z,0.20
2022-08-09T15:21:57.455Z,0.20
2022-08-09T15:24:00.839Z,0.10
2022-08-09T15:25:59.781Z,0.20
2022-08-09T15:28:27.816Z,0.25
2022-08-09T15:31:09.942Z,0.10
2022-08-09T15:34:17.633Z,0.30
2022-08-09T15:36:29.115Z,0.20
2022-08-09T15:39:00.359Z,0.10
2022-08-09T15:41:32.095Z,0.20
2022-08-09T15:44:03.019Z,0.20
2022-08-09T15:46:32.915Z,0.20
2022-08-09T15:49:20.867Z,0.40
2022-08-09T15:52:03.245Z,0.10
2022-08-09T15:54:44.606Z,0.30
2022-08-09T15:57:35.002Z,0.20
2022-08-09T16:00:09.334Z,0.20
2022-08-09T16:02:42.033Z,0.28
2022-08-09T16:05:09.351Z,0.25
2022-08-09T16:07:39.057Z,0.28
2022-08-09T16:10:11.211Z,0.30
2022-08-09T16:12:50.224Z,0.32
2022-08-09T16:16:11.625Z,0.10
2022-08-09T16:18:05.229Z,0.20
2022-08-09T16:20:36.383Z,0.40
2022-08-09T16:23:05.392Z,0.23
2022-08-09T16:25:36.964Z,0.20
2022-08-09T16:28:06.607Z,0.30
2022-08-09T16:30:33.535Z,0.22
2022-08-09T16:33:01.495Z,0.30
2022-08-09T16:35:56.411Z,0.50
2022-08-09T16:38:17.838Z,0.40
2022-08-09T16:40:44.961Z,0.30
2022-08-09T16:43:12.555Z,0.35
2022-08-09T16:45:44.462Z,0.30
2022-08-09T16:48:42.616Z,0.50
2022-08-09T16:51:07.390Z,0.30
2022-08-09T16:53:35.949Z,0.30
2022-08-09T16:56:10.185Z,0.30
2022-08-09T16:58:39.913Z,0.40
2022-08-09T17:01:10.041Z,0.30
2022-08-09T17:03:37.726Z,0.40
2022-08-09T17:06:28.159Z,0.60
2022-08-09T17:09:01.467Z,0.30
2022-08-09T17:11:40.703Z,0.40
2022-08-09T17:14:25.642Z,0.20
2022-08-09T17:17:01.396Z,0.20
2022-08-09T17:19:46.695Z,0.80
2022-08-09T17:22:24.729Z,0.32
2022-08-09T17:25:03.008Z,0.30
2022-08-09T17:27:35.024Z,0.27
2022-08-09T17:30:12.907Z,0.28
2022-08-09T17:32:44.240Z,0.30
2022-08-09T17:35:14.440Z,0.40
2022-08-09T17:38:14.411Z,1.20
2022-08-09T17:40:30.169Z,0.27
2022-08-09T17:43:32.412Z,0.50
2022-08-09T17:46:04.284Z,0.20
2022-08-09T17:48:34.452Z,0.35
2022-08-09T17:51:01.768Z,0.30
2022-08-09T17:53:42.856Z,0.30
2022-08-09T17:56:10.550Z,0.60
2022-08-09T17:58:37.413Z,0.43
2022-08-09T18:01:04.301Z,0.30
2022-08-09T18:03:31.867Z,0.30
2022-08-09T18:06:00.922Z,0.60
2022-08-09T18:08:28.700Z,0.30
2022-08-09T18:11:01.982Z,0.30
2022-08-09T18:13:40.067Z,0.38
2022-08-09T18:16:29.105Z,0.30
2022-08-09T18:19:04.082Z,0.50
2022-08-09T18:21:47.159Z,0.40
2022-08-09T18:24:17.303Z,0.40
2022-08-09T18:26:46.550Z,0.52
2022-08-09T18:30:39.000Z,0.45
2022-08-09T18:32:04.915Z,0.50
2022-08-09T18:34:32.242Z,0.50
2022-08-09T18:36:59.311Z,0.50
2022-08-09T18:39:32.483Z,0.32
2022-08-09T18:42:02.521Z,0.40
2022-08-09T18:44:29.914Z,0.50
2022-08-09T18:47:08.178Z,0.40
2022-08-09T18:49:43.594Z,0.47
2022-08-09T18:52:18.606Z,0.30
2022-08-09T18:54:57.890Z,0.20
2022-08-09T18:57:42.718Z,0.50
2022-08-09T19:00:16.711Z,0.20
2022-08-09T19:02:50.956Z,0.20
2022-08-09T19:05:41.388Z,0.50
2022-08-09T19:08:10.735Z,0.20
2022-08-09T19:10:41.324Z,0.40
2022-08-09T19:13:19.841Z,0.52
2022-08-09T19:15:55.788Z,0.30
2022-08-09T19:18:34.262Z,0.22
2022-08-09T19:21:09.270Z,0.20
2022-08-09T19:24:35.890Z,0.20
2022-08-09T19:26:31.271Z,0.35
2022-08-09T19:29:01.486Z,0.30
2022-08-09T19:31:43.707Z,0.30
2022-08-09T19:34:21.436Z,0.20
2022-08-09T19:36:52.436Z,0.20
2022-08-09T19:39:20.503Z,0.20
2022-08-09T19:41:48.630Z,0.10
2022-08-09T19:44:20.727Z,0.13
2022-08-09T19:46:50.851Z,0.30
2022-08-09T19:50:06.930Z,0.10
2022-08-09T19:52:08.651Z,0.20
2022-08-09T19:54:35.891Z,0.40
2022-08-09T19:57:03.672Z,0.22
2022-08-09T19:59:58.858Z,0.30
2022-08-09T20:04:07.616Z,0.23
2022-08-09T20:05:10.134Z,0.20
2022-08-09T20:07:58.916Z,0.45
2022-08-09T20:10:36.454Z,0.20
2022-08-09T20:13:06.233Z,0.30
2022-08-09T20:16:33.520Z,0.20
2022-08-09T20:18:22.436Z,0.20
2022-08-09T20:20:51.455Z,0.20
2022-08-09T20:23:23.805Z,0.28
2022-08-09T20:25:52.861Z,0.20
2022-08-09T20:28:27.542Z,0.30
2022-08-09T20:31:02.701Z,0.20
2022-08-09T20:33:41.038Z,0.50
2022-08-09T20:36:12.756Z,0.20
2022-08-09T20:39:28.696Z,0.20
2022-08-09T20:41:35.474Z,0.20
2022-08-09T20:44:10.093Z,0.40
2022-08-09T20:46:44.595Z,0.20
2022-08-09T20:49:13.878Z,0.20
2022-08-09T20:51:42.728Z,0.40
2022-08-09T20:54:16.525Z,0.10
2022-08-09T20:56:49.482Z,0.45
2022-08-09T21:00:20.635Z,0.28
2022-08-09T21:02:07.573Z,0.20
2022-08-09T21:05:53.118Z,0.30
2022-08-09T21:07:21.402Z,0.20
2022-08-09T21:09:58.327Z,0.20
2022-08-09T21:15:14.965Z,0.20
2022-08-09T21:18:20.758Z,0.20
2022-08-09T21:20:30.664Z,0.27
2022-08-09T21:22:59.648Z,0.17
2022-08-09T21:25:38.101Z,0.20
2022-08-09T21:28:07.575Z,0.30
2022-08-09T21:30:40.747Z,0.50
2022-08-09T21:33:08.835Z,0.30
2022-08-09T21:35:40.635Z,0.20
2022-08-09T21:38:21.006Z,0.17
2022-08-09T21:40:57.949Z,0.30
2022-08-09T21:43:56.180Z,0.20
2022-08-09T21:46:13.685Z,0.13
2022-08-09T21:48:42.606Z,0.20
2022-08-09T21:51:18.080Z,0.30
2022-08-09T21:53:54.858Z,0.20
2022-08-09T21:56:33.779Z,0.10
2022-08-09T21:59:09.025Z,0.30
2022-08-09T22:01:58.864Z,0.20
2022-08-09T22:04:22.706Z,0.20
2022-08-09T22:07:09.583Z,0.20
2022-08-09T22:09:39.113Z,0.30
2022-08-09T22:12:18.770Z,0.20
2022-08-09T22:14:51.637Z,0.20
2022-08-09T22:17:18.407Z,0.25
2022-08-09T22:19:58.379Z,0.20
2022-08-09T22:22:30.512Z,0.20
2022-08-09T22:26:06.492Z,0.20
2022-08-09T22:27:48.068Z,0.20
2022-08-09T22:30:15.790Z,0.20
2022-08-09T22:32:53.376Z,0.10
2022-08-09T22:36:01.002Z,0.20
2022-08-09T22:38:07.997Z,0.10
2022-08-09T22:40:36.022Z,0.38
2022-08-09T22:43:16.096Z,0.30
2022-08-09T22:48:15.885Z,0.25
2022-08-09T22:48:37.031Z,0.20
2022-08-09T22:51:10.761Z,0.10
2022-08-09T22:54:02.431Z,0.10
2022-08-09T22:56:33.876Z,0.20
2022-08-09T22:59:05.777Z,0.20
2022-08-09T23:01:50.579Z,0.30
2022-08-09T23:04:17.552Z,0.30
2022-08-09T23:06:44.711Z,0.10
2022-08-09T23:09:12.103Z,0.17
2022-08-09T23:11:40.322Z,0.20
2022-08-09T23:14:10.296Z,0.10
2022-08-09T23:16:45.272Z,0.20
2022-08-09T23:19:12.192Z,0.13
2022-08-09T23:21:39.670Z,0.20
2022-08-09T23:24:07.649Z,0.30
2022-08-09T23:26:36.423Z,0.40
2022-08-09T23:29:05.224Z,0.27
2022-08-09T23:31:32.124Z,0.30
2022-08-09T23:33:58.949Z,0.13
2022-08-09T23:36:27.019Z,0.10
2022-08-09T23:38:53.936Z,0.10
2022-08-09T23:41:27.630Z,0.20
2022-08-09T23:43:57.628Z,0.20
2022-08-09T23:46:24.531Z,0.10
2022-08-09T23:48:51.339Z,0.20
2022-08-09T23:51:18.208Z,0.20
2022-08-09T23:53:44.949Z,0.20
2022-08-09T23:56:14.346Z,0.10
2022-08-09T23:58:41.427Z,0.30
